createdAt,value
2019-01-05T00:02:26.637Z,26.80
2019-01-05T00:07:22.899Z,29.40
2019-01-05T00:12:30.841Z,27.93
2019-01-05T00:17:25.655Z,30.83
2019-01-05T00:22:25.225Z,31.50
2019-01-05T00:27:27.899Z,35.60
2019-01-05T00:32:27.711Z,28.50
2019-01-05T00:37:24.077Z,34.03
2019-01-05T00:42:24.123Z,31.67
2019-01-05T00:47:23.362Z,36.50
2019-01-05T00:52:35.503Z,36.47
2019-01-05T00:57:50.855Z,32.97
2019-01-05T01:02:56.369Z,35.00
2019-01-05T01:07:55.410Z,36.23
2019-01-05T01:12:54.513Z,35.20
2019-01-05T01:18:00.214Z,32.70
2019-01-05T01:23:00.558Z,35.63
2019-01-05T01:28:13.090Z,37.33
2019-01-05T01:33:13.190Z,38.50
2019-01-05T01:38:25.385Z,39.17
2019-01-05T01:43:30.496Z,39.37
2019-01-05T01:48:35.794Z,34.80
2019-01-05T01:53:32.557Z,37.87
2019-01-05T01:58:35.866Z,35.47
2019-01-05T02:03:32.262Z,39.53
2019-01-05T02:08:44.311Z,33.73
2019-01-05T02:13:44.460Z,36.67
2019-01-05T02:18:58.222Z,36.70
2019-01-05T02:24:22.726Z,36.40
2019-01-05T02:30:06.116Z,35.13
2019-01-05T02:35:31.645Z,37.30
2019-01-05T02:41:29.574Z,35.57
2019-01-05T02:46:48.831Z,37.77
2019-01-05T02:52:37.304Z,36.23
2019-01-05T02:57:55.679Z,36.90
2019-01-05T03:03:30.741Z,34.97
2019-01-05T03:08:51.453Z,34.90
2019-01-05T03:14:25.094Z,28.57
2019-01-05T03:19:41.838Z,30.70
2019-01-05T03:25:20.896Z,28.40
2019-01-05T03:30:48.165Z,27.70
2019-01-05T03:36:21.108Z,27.90
2019-01-05T03:42:21.499Z,28.00
2019-01-05T03:47:47.260Z,27.20
2019-01-05T03:53:13.180Z,29.17
2019-01-05T03:58:49.383Z,29.93
2019-01-05T04:04:21.517Z,25.43
2019-01-05T04:10:00.743Z,30.03
2019-01-05T04:15:44.236Z,30.70
2019-01-05T04:21:06.520Z,30.87
2019-01-05T04:26:36.138Z,30.37
2019-01-05T04:31:58.383Z,31.43
2019-01-05T04:37:20.019Z,30.10
2019-01-05T04:43:12.686Z,30.00
2019-01-05T04:48:47.084Z,28.43
2019-01-05T04:54:02.306Z,27.83
2019-01-05T04:59:25.191Z,27.37
2019-01-05T05:05:05.994Z,27.43
2019-01-05T05:10:43.772Z,29.43
2019-01-05T05:16:22.808Z,24.63
2019-01-05T05:22:02.842Z,27.13
2019-01-05T05:27:54.206Z,27.80
2019-01-05T05:33:21.692Z,27.27
2019-01-05T05:39:00.749Z,27.47
2019-01-05T05:44:25.101Z,23.00
2019-01-05T05:50:05.569Z,24.27
2019-01-05T05:55:30.109Z,24.30
2019-01-05T06:01:06.277Z,24.77
2019-01-05T06:06:30.834Z,23.37
2019-01-05T06:12:26.982Z,22.53
2019-01-05T06:17:43.585Z,24.40
2019-01-05T06:23:22.399Z,23.70
2019-01-05T06:29:02.823Z,26.27
2019-01-05T06:34:22.727Z,28.20
2019-01-05T06:40:05.167Z,31.03
2019-01-05T06:45:47.186Z,35.80
2019-01-05T06:51:18.365Z,29.50
2019-01-05T06:57:00.937Z,32.20
2019-01-05T07:02:31.128Z,37.07
2019-01-05T07:08:37.274Z,35.77
2019-01-05T07:14:04.791Z,32.73
2019-01-05T07:19:32.227Z,34.43
2019-01-05T07:25:13.188Z,33.53
2019-01-05T07:31:08.686Z,35.77
2019-01-05T07:36:50.657Z,34.70
2019-01-05T07:42:52.186Z,34.10
2019-01-05T07:49:00.373Z,33.93
2019-01-05T07:54:24.602Z,34.43
2019-01-05T08:00:07.016Z,34.43
2019-01-05T08:05:45.836Z,32.57
2019-01-05T08:11:10.802Z,31.10
2019-01-05T08:16:51.722Z,32.63
2019-01-05T08:22:26.776Z,32.73
2019-01-05T08:28:17.846Z,34.63
2019-01-05T08:34:21.424Z,33.47
2019-01-05T08:40:06.433Z,32.40
2019-01-05T08:45:51.818Z,35.37
2019-01-05T08:51:16.369Z,32.67
2019-01-05T08:57:05.896Z,32.83
2019-01-05T09:02:27.604Z,32.47
2019-01-05T09:08:01.758Z,32.33
2019-01-05T09:13:19.833Z,29.10
2019-01-05T09:18:52.685Z,24.33
2019-01-05T09:24:39.771Z,26.13
2019-01-05T09:30:11.750Z,21.83
2019-01-05T09:35:54.913Z,20.50
2019-01-05T09:41:50.687Z,20.13
2019-01-05T09:47:12.178Z,18.70
2019-01-05T09:52:51.175Z,18.67
2019-01-05T09:58:45.783Z,20.47
2019-01-05T10:04:16.049Z,19.87
2019-01-05T10:10:13.574Z,23.23
2019-01-05T10:15:37.750Z,23.70
2019-01-05T10:21:15.353Z,23.93
2019-01-05T10:27:00.555Z,23.37
2019-01-05T10:32:33.548Z,23.40
2019-01-05T10:38:02.797Z,24.43
2019-01-05T10:43:23.255Z,24.47
2019-01-05T10:49:04.908Z,26.50
2019-01-05T10:54:44.057Z,24.77
2019-01-05T11:00:11.132Z,23.40
2019-01-05T11:05:35.428Z,23.70
2019-01-05T11:11:28.092Z,18.53
2019-01-05T11:16:47.496Z,20.53
2019-01-05T11:22:06.975Z,16.53
2019-01-05T11:27:49.324Z,16.90
2019-01-05T11:33:16.712Z,17.87
2019-01-05T11:38:35.178Z,17.23
2019-01-05T11:43:44.726Z,14.00
2019-01-05T11:48:57.068Z,13.67
2019-01-05T11:54:34.725Z,11.83
2019-01-05T12:00:21.234Z,10.50
2019-01-05T12:05:46.985Z,8.67
2019-01-05T12:11:19.055Z,10.57
2019-01-05T12:17:13.279Z,9.30
2019-01-05T12:22:49.374Z,9.40
2019-01-05T12:27:58.958Z,8.43
2019-01-05T12:33:48.819Z,7.10
2019-01-05T12:39:31.507Z,7.17
2019-01-05T12:44:43.699Z,6.13
2019-01-05T12:50:02.120Z,6.50
2019-01-05T12:55:51.504Z,5.60
2019-01-05T13:01:54.912Z,5.47
2019-01-05T13:07:34.612Z,5.17
2019-01-05T13:13:22.037Z,5.27
2019-01-05T13:18:37.049Z,5.30
2019-01-05T13:24:30.258Z,5.50
2019-01-05T13:30:10.684Z,6.57
2019-01-05T13:35:42.541Z,5.90
2019-01-05T13:41:02.094Z,8.77
2019-01-05T13:46:23.360Z,10.80
2019-01-05T13:51:29.885Z,7.77
2019-01-05T13:56:26.673Z,6.90
2019-01-05T14:01:37.751Z,6.27
2019-01-05T14:06:34.015Z,6.97
2019-01-05T14:11:42.270Z,7.20
2019-01-05T14:16:44.322Z,7.17
2019-01-05T14:21:55.570Z,6.60
2019-01-05T14:26:51.792Z,6.67
2019-01-05T14:31:53.606Z,8.03
2019-01-05T14:36:59.491Z,8.37
2019-01-05T14:42:07.346Z,8.47
2019-01-05T14:47:18.683Z,9.03
2019-01-05T14:52:20.602Z,8.80
2019-01-05T14:57:32.449Z,9.03
2019-01-05T15:02:40.486Z,8.20
2019-01-05T15:07:36.773Z,8.80
2019-01-05T15:12:48.038Z,9.03
2019-01-05T15:18:00.150Z,8.47
2019-01-05T15:22:54.538Z,7.97
2019-01-05T15:27:50.765Z,10.07
2019-01-05T15:32:52.791Z,10.00
2019-01-05T15:37:54.682Z,8.37
2019-01-05T15:42:50.921Z,7.97
2019-01-05T15:47:47.158Z,8.37
2019-01-05T15:52:44.242Z,9.00
2019-01-05T15:57:56.056Z,8.93
2019-01-05T16:02:50.447Z,8.67
2019-01-05T16:10:35.869Z,9.67
2019-01-05T16:15:34.864Z,8.57
2019-01-05T16:20:37.976Z,8.53
2019-01-05T16:25:34.229Z,8.83
2019-01-05T16:30:42.508Z,10.03
2019-01-05T16:35:38.770Z,10.97
2019-01-05T16:40:50.994Z,10.73
2019-01-05T16:45:49.653Z,9.90
2019-01-05T16:50:52.097Z,10.70
2019-01-05T16:55:54.896Z,9.37
2019-01-05T17:00:56.587Z,9.20
2019-01-05T17:06:09.044Z,11.67
2019-01-05T17:11:23.380Z,9.30
2019-01-05T17:16:19.623Z,10.57
2019-01-05T17:21:30.425Z,10.07
2019-01-05T17:26:35.942Z,10.97
2019-01-05T17:31:32.210Z,10.33
2019-01-05T17:36:26.566Z,12.30
2019-01-05T17:41:28.552Z,10.63
2019-01-05T17:46:27.205Z,11.30
2019-01-05T17:51:25.875Z,10.47
2019-01-05T17:56:22.169Z,11.10
2019-01-05T18:01:36.592Z,11.93
2019-01-05T18:06:33.542Z,11.47
2019-01-05T18:11:33.027Z,11.87
2019-01-05T18:16:31.991Z,12.00
2019-01-05T18:21:28.249Z,12.33
2019-01-05T18:26:39.154Z,13.07
2019-01-05T18:31:51.459Z,12.43
2019-01-05T18:36:50.433Z,13.57
2019-01-05T18:41:58.395Z,11.97
2019-01-05T18:47:10.792Z,12.83
2019-01-05T18:52:24.963Z,12.37
2019-01-05T18:57:24.146Z,11.87
2019-01-05T19:02:32.380Z,13.07
2019-01-05T19:07:31.480Z,13.10
2019-01-05T19:12:27.825Z,12.57
2019-01-05T19:17:42.402Z,11.80
2019-01-05T19:22:47.323Z,12.00
2019-01-05T19:27:59.574Z,11.27
2019-01-05T19:33:08.074Z,13.17
2019-01-05T19:38:19.557Z,12.73
2019-01-05T19:43:16.741Z,12.93
2019-01-05T19:48:18.950Z,10.33
2019-01-05T19:53:18.186Z,12.20
2019-01-05T19:58:17.224Z,12.57
2019-01-05T20:03:29.768Z,12.70
2019-01-05T20:08:29.753Z,12.63
2019-01-05T20:13:31.701Z,13.63
2019-01-05T20:18:31.769Z,13.53
2019-01-05T20:23:43.745Z,12.37
2019-01-05T20:28:38.137Z,12.43
2019-01-05T20:33:47.412Z,13.53
2019-01-05T20:38:58.899Z,11.97
2019-01-05T20:43:57.874Z,12.57
2019-01-05T20:49:10.383Z,12.53
2019-01-05T20:54:09.343Z,10.97
2019-01-05T20:59:14.449Z,12.43
2019-01-05T21:04:22.676Z,12.33
2019-01-05T21:09:30.830Z,13.37
2019-01-05T21:14:29.777Z,12.13
2019-01-05T21:19:26.043Z,13.53
2019-01-05T21:24:33.976Z,13.87
2019-01-05T21:29:45.512Z,12.87
2019-01-05T21:34:57.429Z,10.53
2019-01-05T21:40:08.722Z,11.90
2019-01-05T21:45:20.776Z,12.60
2019-01-05T21:50:17.005Z,11.83
2019-01-05T21:55:29.286Z,12.73
2019-01-05T22:00:41.857Z,12.97
2019-01-05T22:05:38.126Z,13.87
2019-01-05T22:10:50.509Z,12.20
2019-01-05T22:15:46.782Z,13.30
2019-01-05T22:20:45.926Z,12.40
2019-01-05T22:25:58.509Z,12.77
2019-01-05T22:30:54.782Z,12.00
2019-01-05T22:35:51.116Z,11.93
2019-01-05T22:40:47.372Z,13.73
2019-01-05T22:45:46.127Z,10.50
2019-01-05T22:50:47.813Z,13.60
2019-01-05T22:56:00.265Z,11.80
2019-01-05T23:01:02.376Z,11.47
2019-01-05T23:06:07.629Z,10.80
2019-01-05T23:11:19.057Z,12.40
2019-01-05T23:16:15.281Z,12.30
2019-01-05T23:21:14.310Z,11.27
2019-01-05T23:26:13.275Z,11.30
2019-01-05T23:31:22.671Z,10.90
2019-01-05T23:36:35.804Z,9.77
2019-01-05T23:41:32.662Z,11.20
2019-01-05T23:46:44.649Z,11.47
2019-01-05T23:51:43.847Z,10.30
2019-01-05T23:56:40.100Z,11.57
